sensor_id;sensor_type;location;lat;lon;timestamp;pressure;altitude;pressure_sealevel;temperature;humidity
12475;BME280;6302;42.624;23.334;2023-03-18T00:01:39;93622.75;;;1.63;100.00
12475;BME280;6302;42.624;23.334;2023-03-18T00:04:07;93619.38;;;1.62;100.00
12475;BME280;6302;42.624;23.334;2023-03-18T00:06:35;93627.19;;;1.62;100.00
12475;BME280;6302;42.624;23.334;2023-03-18T00:09:04;93619.69;;;1.61;100.00
12475;BME280;6302;42.624;23.334;2023-03-18T00:11:31;93616.75;;;1.62;100.00
12475;BME280;6302;42.624;23.334;2023-03-18T00:13:58;93613.38;;;1.62;100.00
12475;BME280;6302;42.624;23.334;2023-03-18T00:16:25;93605.31;;;1.55;100.00
12475;BME280;6302;42.624;23.334;2023-03-18T00:18:52;93614.03;;;1.59;100.00
12475;BME280;6302;42.624;23.334;2023-03-18T00:21:20;93619.25;;;1.59;100.00
12475;BME280;6302;42.624;23.334;2023-03-18T00:23:49;93607.16;;;1.54;100.00
12475;BME280;6302;42.624;23.334;2023-03-18T00:26:20;93603.56;;;1.59;100.00
12475;BME280;6302;42.624;23.334;2023-03-18T00:28:47;93606.53;;;1.57;100.00
12475;BME280;6302;42.624;23.334;2023-03-18T00:31:14;93594.97;;;1.58;100.00
12475;BME280;6302;42.624;23.334;2023-03-18T00:33:41;93594.53;;;1.56;100.00
12475;BME280;6302;42.624;23.334;2023-03-18T00:36:10;93590.84;;;1.57;100.00
12475;BME280;6302;42.624;23.334;2023-03-18T00:38:39;93590.66;;;1.50;100.00
12475;BME280;6302;42.624;23.334;2023-03-18T00:41:07;93587.56;;;1.48;100.00
12475;BME280;6302;42.624;23.334;2023-03-18T00:43:39;93585.09;;;1.52;100.00
12475;BME280;6302;42.624;23.334;2023-03-18T00:46:12;93584.66;;;1.50;100.00
12475;BME280;6302;42.624;23.334;2023-03-18T00:48:41;93579.31;;;1.46;100.00
12475;BME280;6302;42.624;23.334;2023-03-18T00:51:08;93576.91;;;1.41;100.00
12475;BME280;6302;42.624;23.334;2023-03-18T00:53:40;93574.97;;;1.38;100.00
12475;BME280;6302;42.624;23.334;2023-03-18T00:56:07;93568.56;;;1.36;100.00
12475;BME280;6302;42.624;23.334;2023-03-18T00:58:34;93566.91;;;1.31;100.00
12475;BME280;6302;42.624;23.334;2023-03-18T01:01:02;93559.19;;;1.22;100.00
12475;BME280;6302;42.624;23.334;2023-03-18T01:03:30;93563.44;;;1.27;100.00
12475;BME280;6302;42.624;23.334;2023-03-18T01:05:58;93560.06;;;1.26;100.00
12475;BME280;6302;42.624;23.334;2023-03-18T01:08:25;93557.25;;;1.19;100.00
12475;BME280;6302;42.624;23.334;2023-03-18T01:10:53;93557.56;;;1.18;100.00
12475;BME280;6302;42.624;23.334;2023-03-18T01:13:20;93561.91;;;1.14;100.00
12475;BME280;6302;42.624;23.334;2023-03-18T01:15:48;93553.66;;;1.12;100.00
12475;BME280;6302;42.624;23.334;2023-03-18T01:18:15;93556.59;;;1.10;100.00
12475;BME280;6302;42.624;23.334;2023-03-18T01:20:42;93546.47;;;1.09;100.00
12475;BME280;6302;42.624;23.334;2023-03-18T01:23:10;93540.81;;;1.07;100.00
12475;BME280;6302;42.624;23.334;2023-03-18T01:25:38;93547.78;;;1.03;100.00
12475;BME280;6302;42.624;23.334;2023-03-18T01:28:06;93545.16;;;1.03;100.00
12475;BME280;6302;42.624;23.334;2023-03-18T01:30:33;93547.22;;;0.97;100.00
12475;BME280;6302;42.624;23.334;2023-03-18T01:33:01;93527.09;;;0.86;100.00
12475;BME280;6302;42.624;23.334;2023-03-18T01:35:29;93543.53;;;0.98;100.00
12475;BME280;6302;42.624;23.334;2023-03-18T01:37:56;93534.94;;;0.98;100.00
12475;BME280;6302;42.624;23.334;2023-03-18T01:40:24;93538.63;;;0.97;100.00
12475;BME280;6302;42.624;23.334;2023-03-18T01:42:54;93529.81;;;0.89;100.00
12475;BME280;6302;42.624;23.334;2023-03-18T01:45:25;93538.97;;;0.95;100.00
12475;BME280;6302;42.624;23.334;2023-03-18T01:47:53;93533.97;;;0.90;100.00
12475;BME280;6302;42.624;23.334;2023-03-18T01:50:22;93540.81;;;0.95;100.00
12475;BME280;6302;42.624;23.334;2023-03-18T01:52:55;93544.53;;;0.94;100.00
12475;BME280;6302;42.624;23.334;2023-03-18T01:55:25;93534.38;;;0.92;100.00
12475;BME280;6302;42.624;23.334;2023-03-18T01:57:54;93537.34;;;0.91;100.00
12475;BME280;6302;42.624;23.334;2023-03-18T02:00:23;93522.88;;;0.81;100.00
12475;BME280;6302;42.624;23.334;2023-03-18T02:02:51;93534.28;;;0.89;100.00
12475;BME280;6302;42.624;23.334;2023-03-18T02:05:20;93529.38;;;0.87;100.00
12475;BME280;6302;42.624;23.334;2023-03-18T02:07:48;93522.97;;;0.85;100.00
12475;BME280;6302;42.624;23.334;2023-03-18T02:10:18;93519.59;;;0.84;100.00
12475;BME280;6302;42.624;23.334;2023-03-18T02:12:48;93526.69;;;0.84;100.00
12475;BME280;6302;42.624;23.334;2023-03-18T02:15:18;93523.19;;;0.80;100.00
12475;BME280;6302;42.624;23.334;2023-03-18T02:17:51;93510.56;;;0.70;100.00
12475;BME280;6302;42.624;23.334;2023-03-18T02:20:29;93524.94;;;0.76;100.00
12475;BME280;6302;42.624;23.334;2023-03-18T02:23:04;93517.53;;;0.78;100.00
12475;BME280;6302;42.624;23.334;2023-03-18T02:25:45;93524.16;;;0.75;100.00
12475;BME280;6302;42.624;23.334;2023-03-18T02:28:18;93525.56;;;0.73;100.00
12475;BME280;6302;42.624;23.334;2023-03-18T02:30:50;93529.28;;;0.72;100.00
12475;BME280;6302;42.624;23.334;2023-03-18T02:33:20;93525.91;;;0.71;100.00
12475;BME280;6302;42.624;23.334;2023-03-18T02:35:50;93524.06;;;0.72;100.00
12475;BME280;6302;42.624;23.334;2023-03-18T02:38:18;93517.66;;;0.69;100.00
12475;BME280;6302;42.624;23.334;2023-03-18T02:40:45;93515.78;;;0.70;100.00
12475;BME280;6302;42.624;23.334;2023-03-18T02:43:22;93518.38;;;0.70;100.00
12475;BME280;6302;42.624;23.334;2023-03-18T02:45:59;93528.06;;;0.69;100.00
12475;BME280;6302;42.624;23.334;2023-03-18T02:48:33;93512.94;;;0.62;100.00
12475;BME280;6302;42.624;23.334;2023-03-18T02:51:01;93519.25;;;0.61;100.00
12475;BME280;6302;42.624;23.334;2023-03-18T02:53:28;93514.03;;;0.61;100.00
12475;BME280;6302;42.624;23.334;2023-03-18T02:55:55;93519.25;;;0.61;100.00
12475;BME280;6302;42.624;23.334;2023-03-18T02:58:24;93517.72;;;0.60;100.00
12475;BME280;6302;42.624;23.334;2023-03-18T03:00:50;93511.31;;;0.58;100.00
12475;BME280;6302;42.624;23.334;2023-03-18T03:03:17;93516.31;;;0.63;100.00
12475;BME280;6302;42.624;23.334;2023-03-18T03:05:44;93509.47;;;0.58;100.00
12475;BME280;6302;42.624;23.334;2023-03-18T03:08:11;93511.75;;;0.60;100.00
12475;BME280;6302;42.624;23.334;2023-03-18T03:10:38;93514.69;;;0.58;100.00
12475;BME280;6302;42.624;23.334;2023-03-18T03:13:06;93518.06;;;0.59;100.00
12475;BME280;6302;42.624;23.334;2023-03-18T03:15:35;93513.16;;;0.57;100.00
12475;BME280;6302;42.624;23.334;2023-03-18T03:18:02;93526.53;;;0.56;100.00
12475;BME280;6302;42.624;23.334;2023-03-18T03:20:30;93517.50;;;0.53;100.00
12475;BME280;6302;42.624;23.334;2023-03-18T03:22:58;93520.75;;;0.50;100.00
12475;BME280;6302;42.624;23.334;2023-03-18T03:25:24;93518.13;;;0.50;100.00
12475;BME280;6302;42.624;23.334;2023-03-18T03:27:52;93524.00;;;0.47;100.00
12475;BME280;6302;42.624;23.334;2023-03-18T03:30:19;93534.75;;;0.46;100.00
12475;BME280;6302;42.624;23.334;2023-03-18T03:32:47;93531.06;;;0.47;100.00
12475;BME280;6302;42.624;23.334;2023-03-18T03:35:16;93536.59;;;0.45;100.00
12475;BME280;6302;42.624;23.334;2023-03-18T03:37:43;93539.97;;;0.46;100.00
12475;BME280;6302;42.624;23.334;2023-03-18T03:40:11;93525.81;;;0.35;100.00
12475;BME280;6302;42.624;23.334;2023-03-18T03:42:39;93531.91;;;0.39;100.00
12475;BME280;6302;42.624;23.334;2023-03-18T03:45:07;93536.38;;;0.38;100.00
12475;BME280;6302;42.624;23.334;2023-03-18T03:47:34;93528.09;;;0.36;100.00
12475;BME280;6302;42.624;23.334;2023-03-18T03:50:04;93532.41;;;0.32;100.00
12475;BME280;6302;42.624;23.334;2023-03-18T03:52:31;93529.38;;;0.30;100.00
12475;BME280;6302;42.624;23.334;2023-03-18T03:54:59;93535.50;;;0.34;100.00
12475;BME280;6302;42.624;23.334;2023-03-18T03:57:26;93526.34;;;0.28;100.00
12475;BME280;6302;42.624;23.334;2023-03-18T03:59:53;93529.38;;;0.30;100.00
12475;BME280;6302;42.624;23.334;2023-03-18T04:02:20;93531.56;;;0.28;100.00
12475;BME280;6302;42.624;23.334;2023-03-18T04:04:48;93534.78;;;0.25;100.00
12475;BME280;6302;42.624;23.334;2023-03-18T04:07:17;93531.75;;;0.23;100.00
12475;BME280;6302;42.624;23.334;2023-03-18T04:09:44;93538.94;;;0.26;100.00
12475;BME280;6302;42.624;23.334;2023-03-18T04:12:12;93542.94;;;0.24;100.00
12475;BME280;6302;42.624;23.334;2023-03-18T04:14:39;93545.41;;;0.20;100.00
12475;BME280;6302;42.624;23.334;2023-03-18T04:17:05;93550.97;;;0.19;100.00
12475;BME280;6302;42.624;23.334;2023-03-18T04:19:32;93549.75;;;0.16;100.00
12475;BME280;6302;42.624;23.334;2023-03-18T04:21:59;93555.72;;;0.17;100.00
12475;BME280;6302;42.624;23.334;2023-03-18T04:24:28;93556.94;;;0.19;100.00
12475;BME280;6302;42.624;23.334;2023-03-18T04:26:54;93562.91;;;0.20;100.00
12475;BME280;6302;42.624;23.334;2023-03-18T04:29:22;93565.38;;;0.16;100.00
12475;BME280;6302;42.624;23.334;2023-03-18T04:31:48;93572.78;;;0.14;100.00
12475;BME280;6302;42.624;23.334;2023-03-18T04:34:15;93574.28;;;0.15;100.00
12475;BME280;6302;42.624;23.334;2023-03-18T04:36:42;93577.34;;;0.17;100.00
12475;BME280;6302;42.624;23.334;2023-03-18T04:39:09;93580.25;;;0.16;100.00
12475;BME280;6302;42.624;23.334;2023-03-18T04:41:37;93573.53;;;0.15;100.00
12475;BME280;6302;42.624;23.334;2023-03-18T04:44:05;93581.03;;;0.16;100.00
12475;BME280;6302;42.624;23.334;2023-03-18T04:46:32;93578.84;;;0.18;100.00
12475;BME280;6302;42.624;23.334;2023-03-18T04:48:58;93578.56;;;0.20;100.00
12475;BME280;6302;42.624;23.334;2023-03-18T04:51:26;93578.22;;;0.21;100.00
12475;BME280;6302;42.624;23.334;2023-03-18T04:53:53;93578.66;;;0.23;100.00
12475;BME280;6302;42.624;23.334;2023-03-18T04:56:21;93581.28;;;0.23;100.00
12475;BME280;6302;42.624;23.334;2023-03-18T04:58:49;93582.59;;;0.29;100.00
12475;BME280;6302;42.624;23.334;2023-03-18T05:01:17;93582.28;;;0.31;100.00
12475;BME280;6302;42.624;23.334;2023-03-18T05:03:43;93586.09;;;0.33;100.00
12475;BME280;6302;42.624;23.334;2023-03-18T05:06:19;93586.31;;;0.40;100.00
12475;BME280;6302;42.624;23.334;2023-03-18T05:08:47;93582.66;;;0.41;100.00
12475;BME280;6302;42.624;23.334;2023-03-18T05:11:14;93588.88;;;0.49;100.00
12475;BME280;6302;42.624;23.334;2023-03-18T05:13:41;93587.56;;;0.55;100.00
12475;BME280;6302;42.624;23.334;2023-03-18T05:16:09;93588.56;;;0.62;100.00
12475;BME280;6302;42.624;23.334;2023-03-18T05:18:36;93585.75;;;0.68;100.00
12475;BME280;6302;42.624;23.334;2023-03-18T05:21:03;93580.34;;;0.73;100.00
12475;BME280;6302;42.624;23.334;2023-03-18T05:23:31;93583.59;;;0.82;100.00
12475;BME280;6302;42.624;23.334;2023-03-18T05:25:58;93574.16;;;0.89;100.00
12475;BME280;6302;42.624;23.334;2023-03-18T05:28:25;93572.56;;;0.97;100.00
12475;BME280;6302;42.624;23.334;2023-03-18T05:30:53;93577.69;;;1.05;100.00
12475;BME280;6302;42.624;23.334;2023-03-18T05:33:21;93583.69;;;1.18;100.00
12475;BME280;6302;42.624;23.334;2023-03-18T05:35:48;93575.72;;;1.26;100.00
12475;BME280;6302;42.624;23.334;2023-03-18T05:38:14;93569.31;;;1.36;100.00
12475;BME280;6302;42.624;23.334;2023-03-18T05:40:41;93576.81;;;1.50;100.00
12475;BME280;6302;42.624;23.334;2023-03-18T05:43:09;93577.47;;;1.59;100.00
12475;BME280;6302;42.624;23.334;2023-03-18T05:45:35;93573.63;;;1.68;100.00
12475;BME280;6302;42.624;23.334;2023-03-18T05:48:03;93585.59;;;1.81;100.00
12475;BME280;6302;42.624;23.334;2023-03-18T05:50:33;93589.41;;;1.84;100.00
12475;BME280;6302;42.624;23.334;2023-03-18T05:53:01;93585.13;;;1.91;100.00
12475;BME280;6302;42.624;23.334;2023-03-18T05:55:29;93589.28;;;1.92;100.00
12475;BME280;6302;42.624;23.334;2023-03-18T05:57:56;93586.19;;;2.03;100.00
12475;BME280;6302;42.624;23.334;2023-03-18T06:00:25;93588.47;;;2.16;100.00
12475;BME280;6302;42.624;23.334;2023-03-18T06:02:53;93593.00;;;2.31;100.00
12475;BME280;6302;42.624;23.334;2023-03-18T06:05:20;93599.19;;;2.39;100.00
12475;BME280;6302;42.624;23.334;2023-03-18T06:07:51;93603.47;;;2.59;100.00
12475;BME280;6302;42.624;23.334;2023-03-18T06:10:19;93605.84;;;2.52;100.00
12475;BME280;6302;42.624;23.334;2023-03-18T06:12:47;93615.34;;;2.29;100.00
12475;BME280;6302;42.624;23.334;2023-03-18T06:15:14;93618.09;;;2.08;100.00
12475;BME280;6302;42.624;23.334;2023-03-18T06:17:41;93610.16;;;2.05;100.00
12475;BME280;6302;42.624;23.334;2023-03-18T06:20:10;93619.84;;;2.04;100.00
12475;BME280;6302;42.624;23.334;2023-03-18T06:22:37;93621.94;;;1.86;100.00
12475;BME280;6302;42.624;23.334;2023-03-18T06:25:06;93617.34;;;1.95;100.00
12475;BME280;6302;42.624;23.334;2023-03-18T06:27:34;93624.34;;;1.91;100.00
12475;BME280;6302;42.624;23.334;2023-03-18T06:30:02;93618.88;;;2.09;100.00
12475;BME280;6302;42.624;23.334;2023-03-18T06:32:30;93623.22;;;2.17;100.00
12475;BME280;6302;42.624;23.334;2023-03-18T06:34:57;93621.09;;;2.22;100.00
12475;BME280;6302;42.624;23.334;2023-03-18T06:37:24;93602.34;;;2.32;100.00
12475;BME280;6302;42.624;23.334;2023-03-18T06:39:51;93599.91;;;2.51;100.00
12475;BME280;6302;42.624;23.334;2023-03-18T06:42:19;93589.09;;;2.53;100.00
12475;BME280;6302;42.624;23.334;2023-03-18T06:44:46;93591.66;;;2.65;100.00
12475;BME280;6302;42.624;23.334;2023-03-18T06:47:16;93584.25;;;2.83;100.00
12475;BME280;6302;42.624;23.334;2023-03-18T06:49:43;93585.28;;;2.94;100.00
12475;BME280;6302;42.624;23.334;2023-03-18T06:52:10;93583.34;;;3.06;100.00
12475;BME280;6302;42.624;23.334;2023-03-18T06:54:37;93577.59;;;3.16;100.00
12475;BME280;6302;42.624;23.334;2023-03-18T06:57:04;93580.56;;;3.31;100.00
12475;BME280;6302;42.624;23.334;2023-03-18T06:59:33;93591.22;;;3.38;100.00
12475;BME280;6302;42.624;23.334;2023-03-18T07:02:00;93577.50;;;3.28;100.00
12475;BME280;6302;42.624;23.334;2023-03-18T07:04:27;93586.81;;;3.26;100.00
12475;BME280;6302;42.624;23.334;2023-03-18T07:06:55;93584.94;;;3.26;100.00
12475;BME280;6302;42.624;23.334;2023-03-18T07:09:25;93579.38;;;3.12;100.00
12475;BME280;6302;42.624;23.334;2023-03-18T07:11:51;93587.72;;;3.34;100.00
12475;BME280;6302;42.624;23.334;2023-03-18T07:14:19;93587.47;;;3.39;100.00
12475;BME280;6302;42.624;23.334;2023-03-18T07:16:47;93593.31;;;3.32;100.00
12475;BME280;6302;42.624;23.334;2023-03-18T07:19:14;93588.59;;;3.38;100.00
12475;BME280;6302;42.624;23.334;2023-03-18T07:21:42;93586.81;;;3.42;100.00
12475;BME280;6302;42.624;23.334;2023-03-18T07:24:10;93593.75;;;3.50;100.00
12475;BME280;6302;42.624;23.334;2023-03-18T07:26:40;93587.88;;;3.56;100.00
12475;BME280;6302;42.624;23.334;2023-03-18T07:29:07;93594.97;;;3.71;100.00
12475;BME280;6302;42.624;23.334;2023-03-18T07:31:33;93594.91;;;3.68;100.00
12475;BME280;6302;42.624;23.334;2023-03-18T07:34:02;93595.22;;;3.82;100.00
12475;BME280;6302;42.624;23.334;2023-03-18T07:36:29;93594.09;;;3.83;100.00
12475;BME280;6302;42.624;23.334;2023-03-18T07:38:56;93598.00;;;3.89;100.00
12475;BME280;6302;42.624;23.334;2023-03-18T07:41:24;93587.91;;;3.91;100.00
12475;BME280;6302;42.624;23.334;2023-03-18T07:43:51;93597.72;;;3.94;100.00
12475;BME280;6302;42.624;23.334;2023-03-18T07:46:18;93600.84;;;4.00;100.00
12475;BME280;6302;42.624;23.334;2023-03-18T07:48:44;93611.41;;;4.03;100.00
12475;BME280;6302;42.624;23.334;2023-03-18T07:51:14;93611.53;;;4.10;100.00
12475;BME280;6302;42.624;23.334;2023-03-18T07:53:41;93610.56;;;3.99;100.00
12475;BME280;6302;42.624;23.334;2023-03-18T07:56:09;93608.19;;;4.10;100.00
12475;BME280;6302;42.624;23.334;2023-03-18T07:58:36;93595.97;;;4.17;100.00
12475;BME280;6302;42.624;23.334;2023-03-18T08:01:03;93609.38;;;4.31;100.00
12475;BME280;6302;42.624;23.334;2023-03-18T08:03:30;93604.53;;;4.33;100.00
12475;BME280;6302;42.624;23.334;2023-03-18T08:05:58;93601.22;;;4.36;100.00
12475;BME280;6302;42.624;23.334;2023-03-18T08:08:26;93600.25;;;4.44;100.00
12475;BME280;6302;42.624;23.334;2023-03-18T08:10:55;93594.03;;;4.72;100.00
12475;BME280;6302;42.624;23.334;2023-03-18T08:13:22;93600.16;;;4.79;100.00
12475;BME280;6302;42.624;23.334;2023-03-18T08:15:50;93592.22;;;4.95;100.00
12475;BME280;6302;42.624;23.334;2023-03-18T08:18:17;93592.59;;;5.16;100.00
12475;BME280;6302;42.624;23.334;2023-03-18T08:20:44;93588.13;;;5.20;100.00
12475;BME280;6302;42.624;23.334;2023-03-18T08:23:11;93594.78;;;5.14;100.00
12475;BME280;6302;42.624;23.334;2023-03-18T08:25:39;93591.41;;;5.36;100.00
12475;BME280;6302;42.624;23.334;2023-03-18T08:28:06;93593.09;;;5.48;100.00
12475;BME280;6302;42.624;23.334;2023-03-18T08:30:33;93598.38;;;5.48;100.00
12475;BME280;6302;42.624;23.334;2023-03-18T08:33:00;93600.63;;;5.49;100.00
12475;BME280;6302;42.624;23.334;2023-03-18T08:35:27;93601.22;;;5.39;100.00
12475;BME280;6302;42.624;23.334;2023-03-18T08:37:55;93608.81;;;5.44;100.00
12475;BME280;6302;42.624;23.334;2023-03-18T08:40:22;93602.75;;;5.40;100.00
12475;BME280;6302;42.624;23.334;2023-03-18T08:42:52;93599.00;;;5.41;100.00
12475;BME280;6302;42.624;23.334;2023-03-18T08:45:19;93611.34;;;5.63;100.00
12475;BME280;6302;42.624;23.334;2023-03-18T08:47:45;93612.28;;;5.74;100.00
12475;BME280;6302;42.624;23.334;2023-03-18T08:50:12;93606.50;;;5.88;100.00
12475;BME280;6302;42.624;23.334;2023-03-18T08:52:39;93612.72;;;6.03;100.00
12475;BME280;6302;42.624;23.334;2023-03-18T08:55:07;93612.78;;;5.83;100.00
12475;BME280;6302;42.624;23.334;2023-03-18T08:57:35;93610.88;;;5.80;100.00
12475;BME280;6302;42.624;23.334;2023-03-18T09:00:05;93612.28;;;5.97;100.00
12475;BME280;6302;42.624;23.334;2023-03-18T09:02:32;93619.50;;;6.04;100.00
12475;BME280;6302;42.624;23.334;2023-03-18T09:04:59;93620.41;;;6.15;100.00
12475;BME280;6302;42.624;23.334;2023-03-18T09:07:26;93614.53;;;6.25;100.00
12475;BME280;6302;42.624;23.334;2023-03-18T09:09:53;93620.59;;;6.29;100.00
12475;BME280;6302;42.624;23.334;2023-03-18T09:12:20;93619.16;;;6.35;100.00
12475;BME280;6302;42.624;23.334;2023-03-18T09:14:47;93620.06;;;6.46;100.00
12475;BME280;6302;42.624;23.334;2023-03-18T09:17:15;93629.91;;;6.49;99.83
12475;BME280;6302;42.624;23.334;2023-03-18T09:19:42;93631.22;;;6.66;99.88
12475;BME280;6302;42.624;23.334;2023-03-18T09:22:09;93634.16;;;6.94;97.21
12475;BME280;6302;42.624;23.334;2023-03-18T09:24:36;93634.16;;;6.90;86.60
12475;BME280;6302;42.624;23.334;2023-03-18T09:27:03;93635.66;;;6.91;86.89
12475;BME280;6302;42.624;23.334;2023-03-18T09:29:30;93636.16;;;7.00;86.44
12475;BME280;6302;42.624;23.334;2023-03-18T09:31:57;93635.44;;;7.03;85.30
12475;BME280;6302;42.624;23.334;2023-03-18T09:34:26;93631.47;;;7.23;84.40
12475;BME280;6302;42.624;23.334;2023-03-18T09:36:53;93630.03;;;7.30;83.81
12475;BME280;6302;42.624;23.334;2023-03-18T09:39:20;93626.44;;;7.48;78.29
12475;BME280;6302;42.624;23.334;2023-03-18T09:41:58;93633.88;;;7.36;74.78
12475;BME280;6302;42.624;23.334;2023-03-18T09:44:30;93627.97;;;7.12;71.63
12475;BME280;6302;42.624;23.334;2023-03-18T09:47:20;93622.13;;;7.30;74.79
12475;BME280;6302;42.624;23.334;2023-03-18T09:50:14;93618.41;;;7.34;75.99
12475;BME280;6302;42.624;23.334;2023-03-18T09:52:47;93613.72;;;7.61;77.30
12475;BME280;6302;42.624;23.334;2023-03-18T09:55:20;93621.69;;;7.68;73.31
12475;BME280;6302;42.624;23.334;2023-03-18T09:57:53;93623.22;;;7.69;74.54
12475;BME280;6302;42.624;23.334;2023-03-18T10:00:23;93623.44;;;7.50;70.93
12475;BME280;6302;42.624;23.334;2023-03-18T10:02:52;93628.06;;;7.60;73.18
12475;BME280;6302;42.624;23.334;2023-03-18T10:05:24;93629.16;;;7.59;70.87
12475;BME280;6302;42.624;23.334;2023-03-18T10:07:57;93626.91;;;7.61;69.32
12475;BME280;6302;42.624;23.334;2023-03-18T10:10:28;93595.59;;;7.56;71.18
12475;BME280;6302;42.624;23.334;2023-03-18T10:13:01;93630.19;;;7.91;71.23
12475;BME280;6302;42.624;23.334;2023-03-18T10:15:35;93638.22;;;7.61;68.23
12475;BME280;6302;42.624;23.334;2023-03-18T10:18:10;93631.25;;;7.36;69.50
12475;BME280;6302;42.624;23.334;2023-03-18T10:20:51;93619.66;;;7.47;71.69
12475;BME280;6302;42.624;23.334;2023-03-18T10:23:30;93623.53;;;7.60;67.80
12475;BME280;6302;42.624;23.334;2023-03-18T10:26:03;93624.81;;;7.37;66.44
12475;BME280;6302;42.624;23.334;2023-03-18T10:29:00;93630.91;;;7.04;65.30
12475;BME280;6302;42.624;23.334;2023-03-18T10:31:37;93628.81;;;6.83;62.64
12475;BME280;6302;42.624;23.334;2023-03-18T10:34:10;93625.59;;;6.67;62.49
12475;BME280;6302;42.624;23.334;2023-03-18T10:36:48;93575.91;;;6.32;61.34
12475;BME280;6302;42.624;23.334;2023-03-18T10:39:17;93627.81;;;6.65;62.26
12475;BME280;6302;42.624;23.334;2023-03-18T10:41:47;93628.81;;;6.87;59.75
12475;BME280;6302;42.624;23.334;2023-03-18T10:44:17;93624.97;;;7.14;62.18
12475;BME280;6302;42.624;23.334;2023-03-18T10:46:46;93620.25;;;7.30;59.82
12475;BME280;6302;42.624;23.334;2023-03-18T10:49:17;93620.88;;;7.57;63.72
12475;BME280;6302;42.624;23.334;2023-03-18T10:51:49;93622.84;;;7.70;60.79
12475;BME280;6302;42.624;23.334;2023-03-18T10:54:24;93610.50;;;7.81;61.88
12475;BME280;6302;42.624;23.334;2023-03-18T10:56:53;93621.66;;;8.12;60.72
12475;BME280;6302;42.624;23.334;2023-03-18T10:59:21;93615.75;;;8.32;58.96
12475;BME280;6302;42.624;23.334;2023-03-18T11:01:52;93615.06;;;8.42;59.20
12475;BME280;6302;42.624;23.334;2023-03-18T11:04:21;93605.22;;;8.39;56.32
12475;BME280;6302;42.624;23.334;2023-03-18T11:06:53;93610.59;;;8.54;57.11
12475;BME280;6302;42.624;23.334;2023-03-18T11:09:29;93601.97;;;8.64;55.86
12475;BME280;6302;42.624;23.334;2023-03-18T11:11:57;93599.31;;;8.57;54.90
12475;BME280;6302;42.624;23.334;2023-03-18T11:14:29;93586.53;;;8.73;55.67
12475;BME280;6302;42.624;23.334;2023-03-18T11:16:58;93594.88;;;8.85;55.75
12475;BME280;6302;42.624;23.334;2023-03-18T11:19:28;93589.91;;;8.70;54.73
12475;BME280;6302;42.624;23.334;2023-03-18T11:22:03;93592.47;;;8.48;54.95
12475;BME280;6302;42.624;23.334;2023-03-18T11:24:31;93584.44;;;8.27;54.30
12475;BME280;6302;42.624;23.334;2023-03-18T11:27:21;93589.94;;;8.05;55.66
12475;BME280;6302;42.624;23.334;2023-03-18T11:29:53;93590.91;;;7.79;54.28
12475;BME280;6302;42.624;23.334;2023-03-18T11:32:23;93595.66;;;7.63;54.06
12475;BME280;6302;42.624;23.334;2023-03-18T11:34:53;93598.66;;;7.58;55.58
12475;BME280;6302;42.624;23.334;2023-03-18T11:37:26;93591.81;;;7.53;54.73
12475;BME280;6302;42.624;23.334;2023-03-18T11:40:05;93590.28;;;7.49;56.33
12475;BME280;6302;42.624;23.334;2023-03-18T11:42:33;93583.31;;;7.74;58.97
12475;BME280;6302;42.624;23.334;2023-03-18T11:45:00;93583.78;;;7.90;57.56
12475;BME280;6302;42.624;23.334;2023-03-18T11:47:29;93579.34;;;8.01;55.85
12475;BME280;6302;42.624;23.334;2023-03-18T11:50:01;93579.34;;;8.01;57.09
12475;BME280;6302;42.624;23.334;2023-03-18T11:52:36;93579.38;;;8.05;56.77
12475;BME280;6302;42.624;23.334;2023-03-18T11:55:17;93591.09;;;8.07;58.25
12475;BME280;6302;42.624;23.334;2023-03-18T11:58:08;93598.03;;;7.78;59.58
12475;BME280;6302;42.624;23.334;2023-03-18T12:00:46;93592.28;;;7.66;60.70
12475;BME280;6302;42.624;23.334;2023-03-18T12:03:30;93584.84;;;7.75;57.92
12475;BME280;6302;42.624;23.334;2023-03-18T12:06:04;93586.84;;;7.92;58.32
12475;BME280;6302;42.624;23.334;2023-03-18T12:08:44;93591.94;;;8.25;57.73
12475;BME280;6302;42.624;23.334;2023-03-18T12:11:18;93582.38;;;8.03;55.68
12475;BME280;6302;42.624;23.334;2023-03-18T12:13:55;93582.97;;;7.79;57.65
12475;BME280;6302;42.624;23.334;2023-03-18T12:16:40;93590.00;;;7.61;59.91
12475;BME280;6302;42.624;23.334;2023-03-18T12:19:27;93583.69;;;7.76;60.08
12475;BME280;6302;42.624;23.334;2023-03-18T12:22:19;93582.22;;;7.78;59.71
12475;BME280;6302;42.624;23.334;2023-03-18T12:25:11;93589.78;;;7.83;58.97
12475;BME280;6302;42.624;23.334;2023-03-18T12:27:46;93586.84;;;7.96;58.99
12475;BME280;6302;42.624;23.334;2023-03-18T12:30:32;93583.88;;;7.97;57.22
12475;BME280;6302;42.624;23.334;2023-03-18T12:33:21;93582.31;;;7.93;60.06
12475;BME280;6302;42.624;23.334;2023-03-18T12:35:56;93581.56;;;7.92;61.45
12475;BME280;6302;42.624;23.334;2023-03-18T12:38:43;93586.72;;;7.78;58.82
12475;BME280;6302;42.624;23.334;2023-03-18T12:41:23;93578.72;;;7.64;59.07
12475;BME280;6302;42.624;23.334;2023-03-18T12:44:07;93571.09;;;7.52;58.94
12475;BME280;6302;42.624;23.334;2023-03-18T12:46:39;93578.81;;;7.74;57.30
12475;BME280;6302;42.624;23.334;2023-03-18T12:49:13;93567.69;;;8.02;59.28
12475;BME280;6302;42.624;23.334;2023-03-18T12:51:49;93570.41;;;8.20;57.32
12475;BME280;6302;42.624;23.334;2023-03-18T12:54:20;93570.53;;;8.34;57.35
12475;BME280;6302;42.624;23.334;2023-03-18T12:56:54;93577.28;;;8.31;57.64
12475;BME280;6302;42.624;23.334;2023-03-18T12:59:29;93575.59;;;8.02;58.45
12475;BME280;6302;42.624;23.334;2023-03-18T13:02:14;93577.41;;;7.91;58.09
12475;BME280;6302;42.624;23.334;2023-03-18T13:04:50;93579.63;;;7.85;58.28
12475;BME280;6302;42.624;23.334;2023-03-18T13:07:23;93578.97;;;8.03;59.68
12475;BME280;6302;42.624;23.334;2023-03-18T13:09:54;93575.78;;;8.30;56.78
12475;BME280;6302;42.624;23.334;2023-03-18T13:12:26;93572.09;;;8.49;52.74
12475;BME280;6302;42.624;23.334;2023-03-18T13:15:00;93574.47;;;8.79;54.11
12475;BME280;6302;42.624;23.334;2023-03-18T13:17:30;93570.78;;;9.22;53.83